createdAt,value
2018-07-07T00:00:43.351Z,16.60
2018-07-07T00:03:13.012Z,16.60
2018-07-07T00:05:42.765Z,16.50
2018-07-07T00:08:12.453Z,16.50
2018-07-07T00:10:42.089Z,16.50
2018-07-07T00:13:11.752Z,16.40
2018-07-07T00:15:43.033Z,16.40
2018-07-07T00:18:12.609Z,16.40
2018-07-07T00:20:42.324Z,16.40
2018-07-07T00:23:11.962Z,16.40
2018-07-07T00:25:41.527Z,16.30
2018-07-07T00:28:11.131Z,16.30
2018-07-07T00:33:11.129Z,16.20
2018-07-07T00:35:40.802Z,16.20
2018-07-07T00:38:10.430Z,16.10
2018-07-07T00:40:40.091Z,16.10
2018-07-07T00:43:10.673Z,16.10
2018-07-07T00:45:41.828Z,16.10
2018-07-07T00:48:12.273Z,16.00
2018-07-07T00:50:42.108Z,15.90
2018-07-07T00:53:11.735Z,15.90
2018-07-07T00:55:41.367Z,15.90
2018-07-07T00:58:10.982Z,15.80
2018-07-07T01:00:53.541Z,15.80
2018-07-07T01:03:23.456Z,15.70
2018-07-07T01:05:53.197Z,15.70
2018-07-07T01:08:22.828Z,15.60
2018-07-07T01:10:52.476Z,15.60
2018-07-07T01:13:22.131Z,15.60
2018-07-07T01:15:51.949Z,15.50
2018-07-07T01:18:21.634Z,15.40
2018-07-07T01:20:51.364Z,15.40
2018-07-07T01:23:21.060Z,15.40
2018-07-07T01:25:50.665Z,15.30
2018-07-07T01:28:20.250Z,15.30
2018-07-07T01:30:49.896Z,15.20
2018-07-07T01:33:19.646Z,15.20
2018-07-07T01:35:49.552Z,15.20
2018-07-07T01:38:19.119Z,15.20
2018-07-07T01:40:48.949Z,15.10
2018-07-07T01:43:18.761Z,15.00
2018-07-07T01:45:48.476Z,15.00
2018-07-07T01:48:18.165Z,14.90
2018-07-07T01:50:48.257Z,14.90
2018-07-07T01:53:17.875Z,14.90
2018-07-07T01:55:47.652Z,14.80
2018-07-07T01:58:17.406Z,14.80
2018-07-07T02:00:47.039Z,14.80
2018-07-07T02:03:16.658Z,14.80
2018-07-07T02:05:46.337Z,14.80
2018-07-07T02:08:15.991Z,14.70
2018-07-07T02:10:45.664Z,14.70
2018-07-07T02:13:15.314Z,14.60
2018-07-07T02:15:45.174Z,14.60
2018-07-07T02:18:14.935Z,14.50
2018-07-07T02:20:44.827Z,14.50
2018-07-07T02:23:14.505Z,14.40
2018-07-07T02:25:44.182Z,14.50
2018-07-07T02:28:13.787Z,14.40
2018-07-07T02:30:43.786Z,14.30
2018-07-07T02:33:13.383Z,14.30
2018-07-07T02:35:43.548Z,14.30
2018-07-07T02:38:13.184Z,14.20
2018-07-07T02:40:42.783Z,14.20
2018-07-07T02:43:12.758Z,14.20
2018-07-07T02:45:43.274Z,14.20
2018-07-07T02:48:13.119Z,14.20
2018-07-07T02:50:43.450Z,14.10
2018-07-07T02:53:13.338Z,14.10
2018-07-07T02:55:42.958Z,14.00
2018-07-07T02:58:13.234Z,13.90
2018-07-07T03:00:43.217Z,13.80
2018-07-07T03:03:13.592Z,13.80
2018-07-07T03:05:43.596Z,13.80
2018-07-07T03:08:14.344Z,13.80
2018-07-07T03:10:44.025Z,13.80
2018-07-07T03:13:14.685Z,13.80
2018-07-07T03:15:44.484Z,13.70
2018-07-07T03:18:14.666Z,13.70
2018-07-07T03:20:44.530Z,13.70
2018-07-07T03:23:14.805Z,13.60
2018-07-07T03:25:44.471Z,13.60
2018-07-07T03:28:15.060Z,13.70
2018-07-07T03:30:44.899Z,13.70
2018-07-07T03:33:15.245Z,13.70
2018-07-07T03:35:44.917Z,13.60
2018-07-07T03:38:15.172Z,13.70
2018-07-07T03:40:44.786Z,13.80
2018-07-07T03:43:15.209Z,13.70
2018-07-07T03:45:45.227Z,13.80
2018-07-07T03:48:15.440Z,13.80
2018-07-07T03:50:45.439Z,13.90
2018-07-07T03:53:15.928Z,14.00
2018-07-07T03:55:45.551Z,14.00
2018-07-07T03:58:16.206Z,14.20
2018-07-07T04:00:46.204Z,14.10
2018-07-07T04:03:16.353Z,14.20
2018-07-07T04:05:46.002Z,14.20
2018-07-07T04:08:16.524Z,14.30
2018-07-07T04:10:46.197Z,14.20
2018-07-07T04:13:16.736Z,14.30
2018-07-07T04:15:46.619Z,14.30
2018-07-07T04:18:20.281Z,14.30
2018-07-07T04:20:49.899Z,14.20
2018-07-07T04:23:19.524Z,14.40
2018-07-07T04:25:49.182Z,14.30
2018-07-07T04:28:18.855Z,14.50
2018-07-07T04:30:48.534Z,14.50
2018-07-07T04:33:18.544Z,14.60
2018-07-07T04:35:49.008Z,14.70
2018-07-07T04:38:19.615Z,14.80
2018-07-07T04:40:49.839Z,14.80
2018-07-07T04:43:19.943Z,14.80
2018-07-07T04:45:50.097Z,14.80
2018-07-07T04:48:19.921Z,14.80
2018-07-07T04:50:49.496Z,15.00
2018-07-07T04:53:19.472Z,15.20
2018-07-07T04:55:49.191Z,15.20
2018-07-07T04:58:19.509Z,15.40
2018-07-07T05:00:49.125Z,15.50
2018-07-07T05:03:19.449Z,15.60
2018-07-07T05:05:49.086Z,15.50
2018-07-07T05:08:19.592Z,15.50
2018-07-07T05:10:49.249Z,15.50
2018-07-07T05:13:19.778Z,15.70
2018-07-07T05:15:49.479Z,15.60
2018-07-07T05:18:19.783Z,15.80
2018-07-07T05:20:49.338Z,15.80
2018-07-07T05:23:19.606Z,15.90
2018-07-07T05:25:49.233Z,16.00
2018-07-07T05:28:19.271Z,16.30
2018-07-07T05:30:48.894Z,16.30
2018-07-07T05:33:19.113Z,16.50
2018-07-07T05:35:48.867Z,16.80
2018-07-07T05:38:18.879Z,16.80
2018-07-07T05:41:01.148Z,17.40
2018-07-07T05:43:31.047Z,17.60
2018-07-07T05:46:00.822Z,17.50
2018-07-07T05:48:30.430Z,17.50
2018-07-07T05:51:00.043Z,17.10
2018-07-07T05:53:30.239Z,17.10
2018-07-07T05:55:59.939Z,17.10
2018-07-07T05:58:29.620Z,17.50
2018-07-07T06:00:59.254Z,17.30
2018-07-07T06:03:28.909Z,17.00
2018-07-07T06:05:58.707Z,16.80
2018-07-07T06:08:28.271Z,16.70
2018-07-07T06:10:57.883Z,16.90
2018-07-07T06:13:27.470Z,16.80
2018-07-07T06:15:57.097Z,17.20
2018-07-07T06:18:28.715Z,17.10
2018-07-07T06:20:58.417Z,17.40
2018-07-07T06:23:28.215Z,17.40
2018-07-07T06:25:58.357Z,17.50
2018-07-07T06:28:28.038Z,17.80
2018-07-07T06:30:57.734Z,18.20
2018-07-07T06:33:27.337Z,18.40
2018-07-07T06:35:57.398Z,18.30
2018-07-07T06:38:27.048Z,17.80
2018-07-07T06:40:56.656Z,17.40
2018-07-07T06:43:26.361Z,17.10
2018-07-07T06:45:56.048Z,17.10
2018-07-07T06:48:25.928Z,16.80
2018-07-07T06:50:55.592Z,16.80
2018-07-07T06:53:25.676Z,17.30
2018-07-07T06:55:55.372Z,17.90
2018-07-07T06:58:25.849Z,18.70
2018-07-07T07:00:55.543Z,19.00
2018-07-07T07:03:25.939Z,19.10
2018-07-07T07:05:55.898Z,17.90
2018-07-07T07:08:26.541Z,17.90
2018-07-07T07:10:56.228Z,18.00
2018-07-07T07:13:26.814Z,17.40
2018-07-07T07:15:56.675Z,17.20
2018-07-07T07:18:27.120Z,17.90
2018-07-07T07:20:56.779Z,18.10
2018-07-07T07:23:27.241Z,17.60
2018-07-07T07:25:56.951Z,17.70
2018-07-07T07:28:27.564Z,18.40
2018-07-07T07:33:27.354Z,18.70
2018-07-07T07:35:57.053Z,18.50
2018-07-07T07:38:27.817Z,18.50
2018-07-07T07:40:57.461Z,18.30
2018-07-07T07:43:28.007Z,18.20
2018-07-07T07:45:57.722Z,18.40
2018-07-07T07:48:28.289Z,18.50
2018-07-07T07:50:57.942Z,18.60
2018-07-07T07:53:28.183Z,18.30
2018-07-07T07:55:57.821Z,17.90
2018-07-07T07:58:28.375Z,17.60
2018-07-07T08:00:57.995Z,18.40
2018-07-07T08:03:28.227Z,18.00
2018-07-07T08:05:57.836Z,18.10
2018-07-07T08:08:28.306Z,17.90
2018-07-07T08:11:00.446Z,18.00
2018-07-07T08:13:30.409Z,18.30
2018-07-07T08:16:00.112Z,18.30
2018-07-07T08:18:29.973Z,18.20
2018-07-07T08:20:59.664Z,18.90
2018-07-07T08:23:41.027Z,19.10
2018-07-07T08:26:21.111Z,18.40
2018-07-07T08:29:00.692Z,18.30
2018-07-07T08:31:40.975Z,18.50
2018-07-07T08:34:20.095Z,18.40
2018-07-07T08:36:59.781Z,18.20
2018-07-07T08:39:39.645Z,18.40
2018-07-07T08:42:20.179Z,18.60
2018-07-07T08:45:00.473Z,18.80
2018-07-07T08:47:40.835Z,18.80
2018-07-07T08:50:20.518Z,18.70
2018-07-07T08:53:00.175Z,18.90
2018-07-07T08:55:39.851Z,19.30
2018-07-07T08:58:19.923Z,19.90
2018-07-07T09:00:56.450Z,19.70
2018-07-07T09:03:37.582Z,20.00
2018-07-07T09:06:17.253Z,19.80
2018-07-07T09:08:55.980Z,19.90
2018-07-07T09:11:32.339Z,20.00
2018-07-07T09:14:12.073Z,19.80
2018-07-07T09:16:51.566Z,20.20
2018-07-07T09:19:31.537Z,20.40
2018-07-07T09:22:11.171Z,20.40
2018-07-07T09:24:50.340Z,20.60
2018-07-07T09:27:30.369Z,20.60
2018-07-07T09:30:07.995Z,20.70
2018-07-07T09:32:46.939Z,20.90
2018-07-07T09:35:27.279Z,21.00
2018-07-07T09:38:07.583Z,20.60
2018-07-07T09:40:49.611Z,20.20
2018-07-07T09:43:29.550Z,20.60
2018-07-07T09:46:10.535Z,21.20
2018-07-07T09:48:47.629Z,21.10
2018-07-07T09:51:23.013Z,21.00
2018-07-07T09:54:02.559Z,21.00
2018-07-07T09:56:43.508Z,20.90
2018-07-07T09:59:23.016Z,20.80
2018-07-07T10:02:02.777Z,20.60
2018-07-07T10:04:42.093Z,20.80
2018-07-07T10:07:21.627Z,21.20
2018-07-07T10:10:02.764Z,22.00
2018-07-07T10:12:42.861Z,21.90
2018-07-07T10:15:23.662Z,21.60
2018-07-07T10:18:01.250Z,21.40
2018-07-07T10:20:37.627Z,22.00
2018-07-07T10:23:19.590Z,22.90
2018-07-07T10:25:55.581Z,23.30
2018-07-07T10:28:35.014Z,22.60
2018-07-07T10:31:14.842Z,22.70
2018-07-07T10:33:52.905Z,22.60
2018-07-07T10:36:32.890Z,22.80
2018-07-07T10:39:10.616Z,23.40
2018-07-07T10:41:46.456Z,22.20
2018-07-07T10:44:25.811Z,22.20
2018-07-07T10:47:05.268Z,22.90
2018-07-07T10:49:44.010Z,23.30
2018-07-07T10:52:23.346Z,23.20
2018-07-07T10:55:03.692Z,23.20
2018-07-07T10:57:42.629Z,23.20
2018-07-07T11:00:22.618Z,23.10
2018-07-07T11:03:02.615Z,23.20
2018-07-07T11:05:40.973Z,23.50
2018-07-07T11:08:20.523Z,24.00
2018-07-07T11:11:00.372Z,24.20
2018-07-07T11:13:39.749Z,24.50
2018-07-07T11:16:19.257Z,24.00
2018-07-07T11:18:58.713Z,24.00
2018-07-07T11:21:38.258Z,24.10
2018-07-07T11:24:20.135Z,24.00
2018-07-07T11:26:59.897Z,23.70
2018-07-07T11:29:39.323Z,23.40
2018-07-07T11:32:19.289Z,23.40
2018-07-07T11:35:01.952Z,23.50
2018-07-07T11:37:43.806Z,24.10
2018-07-07T11:40:23.464Z,24.10
2018-07-07T11:43:03.100Z,23.90
2018-07-07T11:45:33.198Z,23.90
2018-07-07T11:48:02.876Z,23.90
2018-07-07T11:50:32.796Z,24.10
2018-07-07T11:53:02.497Z,23.80
2018-07-07T11:55:32.140Z,23.70
2018-07-07T11:58:01.760Z,24.20
2018-07-07T12:00:31.371Z,24.30
2018-07-07T12:05:30.979Z,24.20
2018-07-07T12:08:13.640Z,24.10
2018-07-07T12:12:59.624Z,23.40
2018-07-07T12:15:29.228Z,23.00
2018-07-07T12:17:58.880Z,23.20
2018-07-07T12:20:29.209Z,23.30
2018-07-07T12:22:58.868Z,23.10
2018-07-07T12:25:28.607Z,23.20
2018-07-07T12:27:58.270Z,23.30
2018-07-07T12:32:57.223Z,24.70
2018-07-07T12:35:28.391Z,24.90
2018-07-07T12:37:57.967Z,25.40
2018-07-07T12:40:27.707Z,25.80
2018-07-07T12:42:57.348Z,26.20
2018-07-07T12:45:26.961Z,26.40
2018-07-07T12:47:56.596Z,26.20
2018-07-07T12:50:27.319Z,26.20
2018-07-07T12:52:56.939Z,26.40
2018-07-07T12:55:26.559Z,26.50
2018-07-07T12:57:56.178Z,26.60
2018-07-07T13:12:53.870Z,26.30
2018-07-07T13:15:23.753Z,27.30
2018-07-07T13:17:53.557Z,27.00
2018-07-07T13:20:24.285Z,26.90
2018-07-07T13:22:54.297Z,26.90
2018-07-07T13:25:24.201Z,26.70
2018-07-07T13:27:54.075Z,26.70
2018-07-07T13:30:23.926Z,26.50
2018-07-07T13:32:54.084Z,26.30
2018-07-07T13:35:23.944Z,26.10
2018-07-07T13:37:53.736Z,26.10
2018-07-07T13:40:23.730Z,26.30
2018-07-07T13:42:53.580Z,26.40
2018-07-07T13:45:23.423Z,25.50
2018-07-07T13:47:53.277Z,25.30
2018-07-07T13:50:23.050Z,25.40
2018-07-07T13:52:52.908Z,25.60
2018-07-07T13:55:22.672Z,25.70
2018-07-07T13:57:52.467Z,26.00
2018-07-07T14:00:22.595Z,26.10
2018-07-07T14:02:52.579Z,25.90
2018-07-07T14:05:22.468Z,26.10
2018-07-07T14:07:52.311Z,26.30
2018-07-07T14:10:22.145Z,26.30
2018-07-07T14:12:51.843Z,26.60
2018-07-07T19:49:06.106Z,25.20
2018-07-07T21:52:12.049Z,19.80
